sensor_id;sensor_type;location;lat;lon;timestamp;P1;durP1;ratioP1;P2;durP2;ratioP2
46753;SDS011;32500;50.620;3.400;2023-04-24T00:02:03;95.47;;;53.05;;
46753;SDS011;32500;50.620;3.400;2023-04-24T00:04:31;92.40;;;53.30;;
46753;SDS011;32500;50.620;3.400;2023-04-24T00:06:57;93.60;;;53.65;;
46753;SDS011;32500;50.620;3.400;2023-04-24T00:09:24;90.65;;;52.97;;
46753;SDS011;32500;50.620;3.400;2023-04-24T00:11:51;89.97;;;52.85;;
46753;SDS011;32500;50.620;3.400;2023-04-24T00:14:17;91.10;;;52.92;;
46753;SDS011;32500;50.620;3.400;2023-04-24T00:16:42;90.82;;;53.33;;
46753;SDS011;32500;50.620;3.400;2023-04-24T00:19:08;91.10;;;53.22;;
46753;SDS011;32500;50.620;3.400;2023-04-24T00:21:34;91.22;;;53.45;;
46753;SDS011;32500;50.620;3.400;2023-04-24T00:24:00;93.55;;;53.20;;
46753;SDS011;32500;50.620;3.400;2023-04-24T00:26:25;91.95;;;53.30;;
46753;SDS011;32500;50.620;3.400;2023-04-24T00:28:51;91.88;;;53.22;;
46753;SDS011;32500;50.620;3.400;2023-04-24T00:31:16;92.88;;;53.22;;
46753;SDS011;32500;50.620;3.400;2023-04-24T00:33:42;93.40;;;53.00;;
46753;SDS011;32500;50.620;3.400;2023-04-24T00:36:08;93.93;;;53.00;;
46753;SDS011;32500;50.620;3.400;2023-04-24T00:38:34;90.57;;;52.85;;
46753;SDS011;32500;50.620;3.400;2023-04-24T00:41:00;90.50;;;52.88;;
46753;SDS011;32500;50.620;3.400;2023-04-24T00:43:25;91.00;;;53.13;;
46753;SDS011;32500;50.620;3.400;2023-04-24T00:45:51;91.78;;;53.13;;
46753;SDS011;32500;50.620;3.400;2023-04-24T00:48:17;91.57;;;53.10;;
46753;SDS011;32500;50.620;3.400;2023-04-24T00:50:44;92.30;;;53.03;;
46753;SDS011;32500;50.620;3.400;2023-04-24T00:53:10;91.32;;;53.00;;
46753;SDS011;32500;50.620;3.400;2023-04-24T00:55:35;91.72;;;52.78;;
46753;SDS011;32500;50.620;3.400;2023-04-24T00:58:02;89.95;;;52.65;;
46753;SDS011;32500;50.620;3.400;2023-04-24T01:00:28;89.97;;;52.38;;
46753;SDS011;32500;50.620;3.400;2023-04-24T01:02:54;90.78;;;52.42;;
46753;SDS011;32500;50.620;3.400;2023-04-24T01:05:20;90.13;;;52.97;;
46753;SDS011;32500;50.620;3.400;2023-04-24T01:07:46;89.45;;;52.53;;
46753;SDS011;32500;50.620;3.400;2023-04-24T01:10:14;89.90;;;53.10;;
46753;SDS011;32500;50.620;3.400;2023-04-24T01:12:40;89.63;;;52.60;;
46753;SDS011;32500;50.620;3.400;2023-04-24T01:15:06;91.10;;;53.13;;
46753;SDS011;32500;50.620;3.400;2023-04-24T01:17:33;91.70;;;52.58;;
46753;SDS011;32500;50.620;3.400;2023-04-24T01:19:59;90.40;;;53.15;;
46753;SDS011;32500;50.620;3.400;2023-04-24T01:22:25;92.63;;;52.70;;
46753;SDS011;32500;50.620;3.400;2023-04-24T01:24:52;90.10;;;53.17;;
46753;SDS011;32500;50.620;3.400;2023-04-24T01:27:18;91.45;;;52.92;;
46753;SDS011;32500;50.620;3.400;2023-04-24T01:29:44;90.47;;;52.58;;
46753;SDS011;32500;50.620;3.400;2023-04-24T01:32:10;89.57;;;52.75;;
46753;SDS011;32500;50.620;3.400;2023-04-24T01:34:37;90.30;;;52.90;;
46753;SDS011;32500;50.620;3.400;2023-04-24T01:37:03;90.03;;;52.92;;
46753;SDS011;32500;50.620;3.400;2023-04-24T01:39:30;90.80;;;52.95;;
46753;SDS011;32500;50.620;3.400;2023-04-24T01:41:55;90.85;;;53.30;;
46753;SDS011;32500;50.620;3.400;2023-04-24T01:44:21;91.05;;;52.88;;
46753;SDS011;32500;50.620;3.400;2023-04-24T01:46:47;89.55;;;52.97;;
46753;SDS011;32500;50.620;3.400;2023-04-24T01:49:13;89.43;;;52.92;;
46753;SDS011;32500;50.620;3.400;2023-04-24T01:51:39;91.45;;;52.55;;
46753;SDS011;32500;50.620;3.400;2023-04-24T01:54:04;89.53;;;52.47;;
46753;SDS011;32500;50.620;3.400;2023-04-24T01:56:31;91.57;;;53.20;;
46753;SDS011;32500;50.620;3.400;2023-04-24T01:59:00;91.32;;;53.20;;
46753;SDS011;32500;50.620;3.400;2023-04-24T02:01:31;89.68;;;52.70;;
46753;SDS011;32500;50.620;3.400;2023-04-24T02:03:59;89.38;;;52.80;;
46753;SDS011;32500;50.620;3.400;2023-04-24T02:06:25;89.65;;;52.63;;
46753;SDS011;32500;50.620;3.400;2023-04-24T02:08:51;89.72;;;52.55;;
46753;SDS011;32500;50.620;3.400;2023-04-24T02:11:17;90.82;;;53.22;;
46753;SDS011;32500;50.620;3.400;2023-04-24T02:13:43;89.22;;;52.78;;
46753;SDS011;32500;50.620;3.400;2023-04-24T02:16:09;89.65;;;52.78;;
46753;SDS011;32500;50.620;3.400;2023-04-24T02:18:35;90.70;;;52.85;;
46753;SDS011;32500;50.620;3.400;2023-04-24T02:21:00;90.75;;;52.92;;
46753;SDS011;32500;50.620;3.400;2023-04-24T02:23:26;91.18;;;52.30;;
46753;SDS011;32500;50.620;3.400;2023-04-24T02:25:52;89.88;;;52.80;;
46753;SDS011;32500;50.620;3.400;2023-04-24T02:28:18;89.80;;;52.45;;
46753;SDS011;32500;50.620;3.400;2023-04-24T02:30:44;89.28;;;52.67;;
46753;SDS011;32500;50.620;3.400;2023-04-24T02:33:10;90.47;;;52.60;;
46753;SDS011;32500;50.620;3.400;2023-04-24T02:35:36;89.95;;;52.33;;
46753;SDS011;32500;50.620;3.400;2023-04-24T02:38:02;89.65;;;52.85;;
46753;SDS011;32500;50.620;3.400;2023-04-24T02:40:28;94.97;;;53.63;;
46753;SDS011;32500;50.620;3.400;2023-04-24T02:42:54;94.88;;;53.45;;
46753;SDS011;32500;50.620;3.400;2023-04-24T02:45:19;91.75;;;53.08;;
46753;SDS011;32500;50.620;3.400;2023-04-24T02:47:45;93.07;;;53.55;;
46753;SDS011;32500;50.620;3.400;2023-04-24T02:50:11;96.35;;;53.72;;
46753;SDS011;32500;50.620;3.400;2023-04-24T02:52:36;90.78;;;53.33;;
46753;SDS011;32500;50.620;3.400;2023-04-24T02:55:02;93.00;;;52.80;;
46753;SDS011;32500;50.620;3.400;2023-04-24T02:57:28;92.72;;;53.10;;
46753;SDS011;32500;50.620;3.400;2023-04-24T02:59:53;92.53;;;53.30;;
46753;SDS011;32500;50.620;3.400;2023-04-24T03:02:19;90.43;;;53.03;;
46753;SDS011;32500;50.620;3.400;2023-04-24T03:04:45;91.75;;;53.42;;
46753;SDS011;32500;50.620;3.400;2023-04-24T03:07:13;90.93;;;53.15;;
46753;SDS011;32500;50.620;3.400;2023-04-24T03:09:39;93.25;;;53.28;;
46753;SDS011;32500;50.620;3.400;2023-04-24T03:12:05;91.50;;;53.25;;
46753;SDS011;32500;50.620;3.400;2023-04-24T03:14:31;92.88;;;53.60;;
46753;SDS011;32500;50.620;3.400;2023-04-24T03:16:57;91.22;;;53.17;;
46753;SDS011;32500;50.620;3.400;2023-04-24T03:19:23;92.95;;;53.25;;
46753;SDS011;32500;50.620;3.400;2023-04-24T03:21:49;89.65;;;52.97;;
46753;SDS011;32500;50.620;3.400;2023-04-24T03:24:14;93.70;;;53.20;;
46753;SDS011;32500;50.620;3.400;2023-04-24T03:26:40;90.78;;;53.28;;
46753;SDS011;32500;50.620;3.400;2023-04-24T03:29:06;92.30;;;53.42;;
46753;SDS011;32500;50.620;3.400;2023-04-24T03:31:32;91.63;;;53.35;;
46753;SDS011;32500;50.620;3.400;2023-04-24T03:33:57;91.53;;;53.47;;
46753;SDS011;32500;50.620;3.400;2023-04-24T03:36:23;89.72;;;53.28;;
46753;SDS011;32500;50.620;3.400;2023-04-24T03:38:49;90.53;;;53.25;;
46753;SDS011;32500;50.620;3.400;2023-04-24T03:41:14;90.53;;;53.15;;
46753;SDS011;32500;50.620;3.400;2023-04-24T03:43:40;88.72;;;52.97;;
46753;SDS011;32500;50.620;3.400;2023-04-24T03:46:05;89.25;;;53.13;;
46753;SDS011;32500;50.620;3.400;2023-04-24T03:48:34;92.53;;;53.65;;
46753;SDS011;32500;50.620;3.400;2023-04-24T03:51:00;89.18;;;53.03;;
46753;SDS011;32500;50.620;3.400;2023-04-24T03:53:25;90.60;;;52.90;;
46753;SDS011;32500;50.620;3.400;2023-04-24T03:55:52;89.50;;;53.35;;
46753;SDS011;32500;50.620;3.400;2023-04-24T03:58:18;89.50;;;52.78;;
46753;SDS011;32500;50.620;3.400;2023-04-24T04:00:44;88.82;;;52.95;;
46753;SDS011;32500;50.620;3.400;2023-04-24T04:03:11;89.25;;;53.10;;
46753;SDS011;32500;50.620;3.400;2023-04-24T04:05:38;93.00;;;53.47;;
46753;SDS011;32500;50.620;3.400;2023-04-24T04:08:04;89.60;;;52.83;;
46753;SDS011;32500;50.620;3.400;2023-04-24T04:10:30;90.05;;;53.20;;
46753;SDS011;32500;50.620;3.400;2023-04-24T04:12:56;89.45;;;52.95;;
46753;SDS011;32500;50.620;3.400;2023-04-24T04:15:21;90.18;;;53.58;;
46753;SDS011;32500;50.620;3.400;2023-04-24T04:17:47;89.60;;;53.30;;
46753;SDS011;32500;50.620;3.400;2023-04-24T04:20:13;92.93;;;53.10;;
46753;SDS011;32500;50.620;3.400;2023-04-24T04:22:38;90.25;;;53.22;;
46753;SDS011;32500;50.620;3.400;2023-04-24T04:25:04;91.97;;;53.58;;
46753;SDS011;32500;50.620;3.400;2023-04-24T04:27:31;89.88;;;53.03;;
46753;SDS011;32500;50.620;3.400;2023-04-24T04:29:59;90.45;;;53.72;;
46753;SDS011;32500;50.620;3.400;2023-04-24T04:32:32;89.85;;;52.92;;
46753;SDS011;32500;50.620;3.400;2023-04-24T04:34:58;91.20;;;52.92;;
46753;SDS011;32500;50.620;3.400;2023-04-24T04:37:31;90.82;;;53.20;;
46753;SDS011;32500;50.620;3.400;2023-04-24T04:39:58;89.70;;;53.05;;
46753;SDS011;32500;50.620;3.400;2023-04-24T04:42:24;89.38;;;52.95;;
46753;SDS011;32500;50.620;3.400;2023-04-24T04:44:51;91.72;;;53.53;;
46753;SDS011;32500;50.620;3.400;2023-04-24T04:47:17;91.45;;;53.28;;
46753;SDS011;32500;50.620;3.400;2023-04-24T04:49:47;91.20;;;53.50;;
46753;SDS011;32500;50.620;3.400;2023-04-24T04:52:13;88.82;;;52.90;;
46753;SDS011;32500;50.620;3.400;2023-04-24T04:54:38;91.88;;;53.53;;
46753;SDS011;32500;50.620;3.400;2023-04-24T04:57:05;90.95;;;53.75;;
46753;SDS011;32500;50.620;3.400;2023-04-24T04:59:31;90.10;;;53.35;;
46753;SDS011;32500;50.620;3.400;2023-04-24T05:01:56;90.65;;;53.55;;
46753;SDS011;32500;50.620;3.400;2023-04-24T05:04:22;89.35;;;53.10;;
46753;SDS011;32500;50.620;3.400;2023-04-24T05:06:48;90.03;;;53.33;;
46753;SDS011;32500;50.620;3.400;2023-04-24T05:09:16;90.70;;;53.05;;
46753;SDS011;32500;50.620;3.400;2023-04-24T05:11:41;89.50;;;53.30;;
46753;SDS011;32500;50.620;3.400;2023-04-24T05:14:07;89.78;;;52.95;;
46753;SDS011;32500;50.620;3.400;2023-04-24T05:16:33;89.00;;;53.15;;
46753;SDS011;32500;50.620;3.400;2023-04-24T05:18:58;88.97;;;53.08;;
46753;SDS011;32500;50.620;3.400;2023-04-24T05:21:24;91.57;;;53.83;;
46753;SDS011;32500;50.620;3.400;2023-04-24T05:23:50;91.10;;;53.33;;
46753;SDS011;32500;50.620;3.400;2023-04-24T05:26:15;92.60;;;53.53;;
46753;SDS011;32500;50.620;3.400;2023-04-24T05:28:42;90.30;;;53.55;;
46753;SDS011;32500;50.620;3.400;2023-04-24T05:31:08;91.97;;;53.45;;
46753;SDS011;32500;50.620;3.400;2023-04-24T05:33:34;92.45;;;53.03;;
46753;SDS011;32500;50.620;3.400;2023-04-24T05:36:00;92.13;;;53.67;;
46753;SDS011;32500;50.620;3.400;2023-04-24T05:38:25;91.30;;;53.80;;
46753;SDS011;32500;50.620;3.400;2023-04-24T05:40:52;93.10;;;53.65;;
46753;SDS011;32500;50.620;3.400;2023-04-24T05:43:18;95.82;;;54.28;;
46753;SDS011;32500;50.620;3.400;2023-04-24T05:45:43;92.53;;;53.47;;
46753;SDS011;32500;50.620;3.400;2023-04-24T05:48:10;92.50;;;54.05;;
46753;SDS011;32500;50.620;3.400;2023-04-24T05:50:35;93.90;;;53.55;;
46753;SDS011;32500;50.620;3.400;2023-04-24T05:53:01;93.75;;;53.50;;
46753;SDS011;32500;50.620;3.400;2023-04-24T05:55:27;93.82;;;54.03;;
46753;SDS011;32500;50.620;3.400;2023-04-24T05:57:53;92.93;;;53.70;;
46753;SDS011;32500;50.620;3.400;2023-04-24T06:00:19;92.47;;;53.42;;
46753;SDS011;32500;50.620;3.400;2023-04-24T06:02:45;95.15;;;54.15;;
46753;SDS011;32500;50.620;3.400;2023-04-24T06:05:12;93.22;;;53.92;;
46753;SDS011;32500;50.620;3.400;2023-04-24T06:07:37;89.20;;;53.70;;
46753;SDS011;32500;50.620;3.400;2023-04-24T06:10:03;90.60;;;53.33;;
46753;SDS011;32500;50.620;3.400;2023-04-24T06:12:29;90.32;;;53.47;;
46753;SDS011;32500;50.620;3.400;2023-04-24T06:14:55;89.45;;;53.60;;
46753;SDS011;32500;50.620;3.400;2023-04-24T06:17:21;91.38;;;53.50;;
46753;SDS011;32500;50.620;3.400;2023-04-24T06:19:46;94.43;;;53.80;;
46753;SDS011;32500;50.620;3.400;2023-04-24T06:22:12;89.47;;;53.45;;
46753;SDS011;32500;50.620;3.400;2023-04-24T06:24:39;89.55;;;53.50;;
46753;SDS011;32500;50.620;3.400;2023-04-24T06:27:05;93.88;;;53.30;;
46753;SDS011;32500;50.620;3.400;2023-04-24T06:29:31;89.10;;;53.60;;
46753;SDS011;32500;50.620;3.400;2023-04-24T06:31:58;91.47;;;53.47;;
46753;SDS011;32500;50.620;3.400;2023-04-24T06:34:23;90.57;;;53.72;;
46753;SDS011;32500;50.620;3.400;2023-04-24T06:36:49;91.75;;;53.75;;
46753;SDS011;32500;50.620;3.400;2023-04-24T06:39:15;92.38;;;53.47;;
46753;SDS011;32500;50.620;3.400;2023-04-24T06:41:40;91.00;;;53.40;;
46753;SDS011;32500;50.620;3.400;2023-04-24T06:44:06;89.80;;;53.42;;
46753;SDS011;32500;50.620;3.400;2023-04-24T06:46:32;92.82;;;53.42;;
46753;SDS011;32500;50.620;3.400;2023-04-24T06:48:57;90.47;;;53.53;;
46753;SDS011;32500;50.620;3.400;2023-04-24T06:51:23;92.57;;;53.63;;
46753;SDS011;32500;50.620;3.400;2023-04-24T06:53:51;90.18;;;53.20;;
46753;SDS011;32500;50.620;3.400;2023-04-24T06:56:17;91.20;;;53.70;;
46753;SDS011;32500;50.620;3.400;2023-04-24T06:58:43;89.95;;;53.50;;
46753;SDS011;32500;50.620;3.400;2023-04-24T07:01:10;89.78;;;53.50;;
46753;SDS011;32500;50.620;3.400;2023-04-24T07:03:36;90.40;;;53.47;;
46753;SDS011;32500;50.620;3.400;2023-04-24T07:06:01;91.40;;;53.83;;
46753;SDS011;32500;50.620;3.400;2023-04-24T07:08:29;90.72;;;53.50;;
46753;SDS011;32500;50.620;3.400;2023-04-24T07:10:55;92.07;;;54.13;;
46753;SDS011;32500;50.620;3.400;2023-04-24T07:13:22;90.05;;;53.53;;
46753;SDS011;32500;50.620;3.400;2023-04-24T07:15:48;90.53;;;54.10;;
46753;SDS011;32500;50.620;3.400;2023-04-24T07:18:16;91.35;;;53.55;;
46753;SDS011;32500;50.620;3.400;2023-04-24T07:20:42;92.18;;;54.13;;
46753;SDS011;32500;50.620;3.400;2023-04-24T07:23:07;92.15;;;53.47;;
46753;SDS011;32500;50.620;3.400;2023-04-24T07:25:33;91.82;;;54.40;;
46753;SDS011;32500;50.620;3.400;2023-04-24T07:27:59;91.45;;;53.63;;
46753;SDS011;32500;50.620;3.400;2023-04-24T07:30:24;90.38;;;53.65;;
46753;SDS011;32500;50.620;3.400;2023-04-24T07:32:50;91.18;;;54.30;;
46753;SDS011;32500;50.620;3.400;2023-04-24T07:35:16;92.30;;;53.47;;
46753;SDS011;32500;50.620;3.400;2023-04-24T07:37:42;89.93;;;53.55;;
46753;SDS011;32500;50.620;3.400;2023-04-24T07:40:11;90.72;;;53.17;;
46753;SDS011;32500;50.620;3.400;2023-04-24T07:42:37;90.32;;;53.50;;
46753;SDS011;32500;50.620;3.400;2023-04-24T07:45:03;91.10;;;53.50;;
46753;SDS011;32500;50.620;3.400;2023-04-24T07:47:30;91.60;;;53.70;;
46753;SDS011;32500;50.620;3.400;2023-04-24T07:49:56;92.30;;;54.15;;
46753;SDS011;32500;50.620;3.400;2023-04-24T07:52:21;91.88;;;53.92;;
46753;SDS011;32500;50.620;3.400;2023-04-24T07:54:47;91.50;;;53.67;;
46753;SDS011;32500;50.620;3.400;2023-04-24T07:57:13;92.38;;;53.60;;
46753;SDS011;32500;50.620;3.400;2023-04-24T07:59:38;92.43;;;53.88;;
46753;SDS011;32500;50.620;3.400;2023-04-24T08:02:04;90.25;;;53.65;;
46753;SDS011;32500;50.620;3.400;2023-04-24T08:04:31;91.35;;;53.70;;
46753;SDS011;32500;50.620;3.400;2023-04-24T08:06:57;91.20;;;54.20;;
46753;SDS011;32500;50.620;3.400;2023-04-24T08:09:22;91.35;;;54.08;;
46753;SDS011;32500;50.620;3.400;2023-04-24T08:11:48;92.10;;;53.92;;
46753;SDS011;32500;50.620;3.400;2023-04-24T08:14:14;90.93;;;54.13;;
46753;SDS011;32500;50.620;3.400;2023-04-24T08:16:40;90.43;;;53.45;;
46753;SDS011;32500;50.620;3.400;2023-04-24T08:19:06;91.22;;;53.80;;
46753;SDS011;32500;50.620;3.400;2023-04-24T08:21:32;91.65;;;53.72;;
46753;SDS011;32500;50.620;3.400;2023-04-24T08:23:58;89.75;;;53.78;;
46753;SDS011;32500;50.620;3.400;2023-04-24T08:26:23;89.20;;;53.63;;
46753;SDS011;32500;50.620;3.400;2023-04-24T08:28:49;92.30;;;54.08;;
46753;SDS011;32500;50.620;3.400;2023-04-24T08:31:15;90.95;;;53.80;;
46753;SDS011;32500;50.620;3.400;2023-04-24T08:33:41;90.78;;;53.55;;
46753;SDS011;32500;50.620;3.400;2023-04-24T08:36:09;90.30;;;53.97;;
46753;SDS011;32500;50.620;3.400;2023-04-24T08:38:36;90.78;;;53.78;;
46753;SDS011;32500;50.620;3.400;2023-04-24T08:41:01;91.82;;;53.67;;
46753;SDS011;32500;50.620;3.400;2023-04-24T08:43:29;90.38;;;53.78;;
46753;SDS011;32500;50.620;3.400;2023-04-24T08:45:56;91.53;;;53.85;;
46753;SDS011;32500;50.620;3.400;2023-04-24T08:48:22;92.28;;;53.97;;
46753;SDS011;32500;50.620;3.400;2023-04-24T08:50:50;90.07;;;53.85;;
46753;SDS011;32500;50.620;3.400;2023-04-24T08:53:16;93.13;;;53.95;;
46753;SDS011;32500;50.620;3.400;2023-04-24T08:55:43;90.43;;;53.88;;
46753;SDS011;32500;50.620;3.400;2023-04-24T08:58:11;92.05;;;53.75;;
46753;SDS011;32500;50.620;3.400;2023-04-24T09:00:38;93.70;;;53.33;;
46753;SDS011;32500;50.620;3.400;2023-04-24T09:03:04;92.05;;;54.13;;
46753;SDS011;32500;50.620;3.400;2023-04-24T09:05:31;91.57;;;54.33;;
46753;SDS011;32500;50.620;3.400;2023-04-24T09:07:58;92.05;;;53.92;;
46753;SDS011;32500;50.620;3.400;2023-04-24T09:10:26;93.50;;;54.03;;
46753;SDS011;32500;50.620;3.400;2023-04-24T09:12:55;90.70;;;54.17;;
46753;SDS011;32500;50.620;3.400;2023-04-24T09:15:24;90.60;;;53.47;;
46753;SDS011;32500;50.620;3.400;2023-04-24T09:17:50;93.15;;;53.88;;
46753;SDS011;32500;50.620;3.400;2023-04-24T09:20:16;96.78;;;54.35;;
46753;SDS011;32500;50.620;3.400;2023-04-24T09:22:42;89.78;;;53.58;;
46753;SDS011;32500;50.620;3.400;2023-04-24T09:25:09;91.30;;;54.53;;
46753;SDS011;32500;50.620;3.400;2023-04-24T09:27:40;93.53;;;54.30;;
46753;SDS011;32500;50.620;3.400;2023-04-24T09:30:08;93.05;;;54.17;;
46753;SDS011;32500;50.620;3.400;2023-04-24T09:32:34;89.60;;;53.65;;
46753;SDS011;32500;50.620;3.400;2023-04-24T09:37:35;92.05;;;54.42;;
46753;SDS011;32500;50.620;3.400;2023-04-24T09:42:32;88.60;;;53.28;;
46753;SDS011;32500;50.620;3.400;2023-04-24T09:44:58;90.30;;;53.90;;
46753;SDS011;32500;50.620;3.400;2023-04-24T09:47:23;91.30;;;53.75;;
46753;SDS011;32500;50.620;3.400;2023-04-24T09:49:49;91.80;;;54.00;;
46753;SDS011;32500;50.620;3.400;2023-04-24T09:52:14;90.25;;;53.67;;
46753;SDS011;32500;50.620;3.400;2023-04-24T09:54:40;92.10;;;54.28;;
46753;SDS011;32500;50.620;3.400;2023-04-24T09:57:09;91.43;;;53.90;;
46753;SDS011;32500;50.620;3.400;2023-04-24T09:59:34;92.03;;;54.33;;
46753;SDS011;32500;50.620;3.400;2023-04-24T10:02:04;91.22;;;54.00;;
46753;SDS011;32500;50.620;3.400;2023-04-24T10:04:53;91.53;;;54.13;;
46753;SDS011;32500;50.620;3.400;2023-04-24T10:07:20;92.28;;;54.53;;
46753;SDS011;32500;50.620;3.400;2023-04-24T10:09:46;92.25;;;54.15;;
46753;SDS011;32500;50.620;3.400;2023-04-24T10:12:12;93.25;;;55.15;;
46753;SDS011;32500;50.620;3.400;2023-04-24T10:14:40;92.35;;;54.40;;
46753;SDS011;32500;50.620;3.400;2023-04-24T10:17:06;90.40;;;54.05;;
46753;SDS011;32500;50.620;3.400;2023-04-24T10:19:31;93.85;;;55.40;;
46753;SDS011;32500;50.620;3.400;2023-04-24T10:21:58;91.43;;;54.28;;
46753;SDS011;32500;50.620;3.400;2023-04-24T10:24:25;93.68;;;54.33;;
46753;SDS011;32500;50.620;3.400;2023-04-24T10:26:51;92.97;;;55.10;;
46753;SDS011;32500;50.620;3.400;2023-04-24T10:29:18;93.05;;;54.45;;
46753;SDS011;32500;50.620;3.400;2023-04-24T10:31:44;92.05;;;55.08;;
46753;SDS011;32500;50.620;3.400;2023-04-24T10:34:11;92.68;;;54.70;;
46753;SDS011;32500;50.620;3.400;2023-04-24T10:36:40;91.75;;;54.45;;
46753;SDS011;32500;50.620;3.400;2023-04-24T10:39:09;91.57;;;54.35;;
46753;SDS011;32500;50.620;3.400;2023-04-24T10:41:38;91.95;;;54.20;;
46753;SDS011;32500;50.620;3.400;2023-04-24T10:44:13;92.53;;;54.78;;
46753;SDS011;32500;50.620;3.400;2023-04-24T10:46:46;90.88;;;54.28;;
46753;SDS011;32500;50.620;3.400;2023-04-24T10:49:27;91.85;;;54.78;;
46753;SDS011;32500;50.620;3.400;2023-04-24T10:51:54;92.22;;;54.35;;
46753;SDS011;32500;50.620;3.400;2023-04-24T10:56:52;91.30;;;54.25;;
46753;SDS011;32500;50.620;3.400;2023-04-24T10:59:38;92.03;;;54.72;;
46753;SDS011;32500;50.620;3.400;2023-04-24T11:02:04;94.30;;;55.58;;
46753;SDS011;32500;50.620;3.400;2023-04-24T11:04:33;93.82;;;55.28;;
46753;SDS011;32500;50.620;3.400;2023-04-24T11:07:00;93.72;;;55.22;;
46753;SDS011;32500;50.620;3.400;2023-04-24T11:09:26;91.15;;;54.30;;
46753;SDS011;32500;50.620;3.400;2023-04-24T11:12:02;91.90;;;54.47;;
46753;SDS011;32500;50.620;3.400;2023-04-24T11:14:54;90.80;;;54.03;;
46753;SDS011;32500;50.620;3.400;2023-04-24T11:17:36;91.80;;;54.53;;
46753;SDS011;32500;50.620;3.400;2023-04-24T11:20:08;93.18;;;54.13;;
46753;SDS011;32500;50.620;3.400;2023-04-24T11:22:36;93.47;;;55.08;;
46753;SDS011;32500;50.620;3.400;2023-04-24T11:25:05;93.07;;;54.55;;
46753;SDS011;32500;50.620;3.400;2023-04-24T11:27:34;91.80;;;54.08;;
46753;SDS011;32500;50.620;3.400;2023-04-24T11:30:04;91.85;;;54.30;;
46753;SDS011;32500;50.620;3.400;2023-04-24T11:34:59;92.72;;;55.17;;
46753;SDS011;32500;50.620;3.400;2023-04-24T11:37:28;93.30;;;54.42;;
46753;SDS011;32500;50.620;3.400;2023-04-24T11:39:59;93.40;;;54.55;;
46753;SDS011;32500;50.620;3.400;2023-04-24T11:42:25;92.18;;;54.53;;
46753;SDS011;32500;50.620;3.400;2023-04-24T11:44:54;91.13;;;54.08;;
46753;SDS011;32500;50.620;3.400;2023-04-24T11:47:27;92.18;;;54.63;;
46753;SDS011;32500;50.620;3.400;2023-04-24T11:49:54;91.70;;;54.53;;
46753;SDS011;32500;50.620;3.400;2023-04-24T11:52:20;94.45;;;54.78;;
46753;SDS011;32500;50.620;3.400;2023-04-24T11:54:49;92.05;;;54.60;;
46753;SDS011;32500;50.620;3.400;2023-04-24T11:57:15;92.13;;;54.80;;
46753;SDS011;32500;50.620;3.400;2023-04-24T11:59:41;91.40;;;54.63;;
46753;SDS011;32500;50.620;3.400;2023-04-24T12:02:07;93.18;;;54.58;;
46753;SDS011;32500;50.620;3.400;2023-04-24T12:04:39;93.55;;;54.45;;
46753;SDS011;32500;50.620;3.400;2023-04-24T12:07:06;91.38;;;54.30;;
46753;SDS011;32500;50.620;3.400;2023-04-24T12:09:43;92.35;;;54.72;;
46753;SDS011;32500;50.620;3.400;2023-04-24T12:12:11;92.03;;;54.92;;
46753;SDS011;32500;50.620;3.400;2023-04-24T12:17:09;92.18;;;54.80;;
46753;SDS011;32500;50.620;3.400;2023-04-24T12:19:35;91.80;;;54.50;;
46753;SDS011;32500;50.620;3.400;2023-04-24T12:22:06;93.28;;;54.85;;
46753;SDS011;32500;50.620;3.400;2023-04-24T12:24:32;91.68;;;54.58;;
46753;SDS011;32500;50.620;3.400;2023-04-24T12:26:58;92.45;;;54.78;;
46753;SDS011;32500;50.620;3.400;2023-04-24T12:29:24;93.85;;;54.47;;
46753;SDS011;32500;50.620;3.400;2023-04-24T12:31:50;90.80;;;54.22;;
46753;SDS011;32500;50.620;3.400;2023-04-24T12:34:19;91.22;;;54.30;;
46753;SDS011;32500;50.620;3.400;2023-04-24T12:36:47;90.72;;;54.10;;
46753;SDS011;32500;50.620;3.400;2023-04-24T12:39:17;91.53;;;53.83;;
46753;SDS011;32500;50.620;3.400;2023-04-24T12:42:17;91.40;;;54.20;;
46753;SDS011;32500;50.620;3.400;2023-04-24T12:44:36;91.53;;;54.42;;
46753;SDS011;32500;50.620;3.400;2023-04-24T12:47:02;91.30;;;53.90;;
46753;SDS011;32500;50.620;3.400;2023-04-24T12:49:29;93.38;;;54.15;;
46753;SDS011;32500;50.620;3.400;2023-04-24T12:51:55;94.95;;;54.53;;
46753;SDS011;32500;50.620;3.400;2023-04-24T12:54:21;90.22;;;53.90;;
46753;SDS011;32500;50.620;3.400;2023-04-24T12:56:47;90.55;;;53.78;;
46753;SDS011;32500;50.620;3.400;2023-04-24T12:59:13;92.70;;;54.58;;
46753;SDS011;32500;50.620;3.400;2023-04-24T13:01:39;92.22;;;54.03;;
46753;SDS011;32500;50.620;3.400;2023-04-24T13:04:05;92.53;;;54.70;;
46753;SDS011;32500;50.620;3.400;2023-04-24T13:06:31;91.90;;;54.03;;
46753;SDS011;32500;50.620;3.400;2023-04-24T13:08:57;90.50;;;54.13;;
46753;SDS011;32500;50.620;3.400;2023-04-24T13:11:23;90.85;;;54.20;;
46753;SDS011;32500;50.620;3.400;2023-04-24T13:13:50;93.07;;;54.17;;
46753;SDS011;32500;50.620;3.400;2023-04-24T13:16:15;91.03;;;54.03;;
46753;SDS011;32500;50.620;3.400;2023-04-24T13:18:42;90.63;;;53.88;;
46753;SDS011;32500;50.620;3.400;2023-04-24T13:21:07;89.93;;;53.80;;
46753;SDS011;32500;50.620;3.400;2023-04-24T13:23:33;91.13;;;54.08;;
46753;SDS011;32500;50.620;3.400;2023-04-24T13:25:59;92.97;;;54.33;;
46753;SDS011;32500;50.620;3.400;2023-04-24T13:28:26;91.85;;;54.08;;
46753;SDS011;32500;50.620;3.400;2023-04-24T13:30:52;90.60;;;53.88;;
46753;SDS011;32500;50.620;3.400;2023-04-24T13:33:18;91.90;;;53.90;;
46753;SDS011;32500;50.620;3.400;2023-04-24T13:35:44;93.32;;;54.25;;
46753;SDS011;32500;50.620;3.400;2023-04-24T13:38:09;92.75;;;54.08;;
46753;SDS011;32500;50.620;3.400;2023-04-24T13:40:35;92.70;;;53.88;;
46753;SDS011;32500;50.620;3.400;2023-04-24T13:43:01;91.13;;;53.75;;
46753;SDS011;32500;50.620;3.400;2023-04-24T13:45:27;90.75;;;54.17;;
46753;SDS011;32500;50.620;3.400;2023-04-24T13:47:53;93.18;;;53.97;;
46753;SDS011;32500;50.620;3.400;2023-04-24T13:50:19;90.20;;;53.67;;
46753;SDS011;32500;50.620;3.400;2023-04-24T13:52:45;92.70;;;53.92;;
46753;SDS011;32500;50.620;3.400;2023-04-24T13:55:11;92.25;;;54.05;;
46753;SDS011;32500;50.620;3.400;2023-04-24T13:57:37;90.32;;;53.92;;
46753;SDS011;32500;50.620;3.400;2023-04-24T14:00:03;91.05;;;53.85;;
46753;SDS011;32500;50.620;3.400;2023-04-24T14:02:29;91.22;;;54.10;;
46753;SDS011;32500;50.620;3.400;2023-04-24T14:04:55;90.63;;;53.95;;
46753;SDS011;32500;50.620;3.400;2023-04-24T14:07:21;90.70;;;53.65;;
46753;SDS011;32500;50.620;3.400;2023-04-24T14:09:46;92.78;;;54.05;;
46753;SDS011;32500;50.620;3.400;2023-04-24T14:12:12;94.05;;;53.78;;
46753;SDS011;32500;50.620;3.400;2023-04-24T14:14:38;93.57;;;54.15;;
46753;SDS011;32500;50.620;3.400;2023-04-24T14:17:04;92.85;;;54.08;;
46753;SDS011;32500;50.620;3.400;2023-04-24T14:19:30;92.95;;;53.92;;
46753;SDS011;32500;50.620;3.400;2023-04-24T14:21:56;94.85;;;54.40;;
46753;SDS011;32500;50.620;3.400;2023-04-24T14:24:23;94.32;;;54.05;;
46753;SDS011;32500;50.620;3.400;2023-04-24T14:26:49;91.22;;;53.72;;
46753;SDS011;32500;50.620;3.400;2023-04-24T14:29:14;93.50;;;53.90;;
46753;SDS011;32500;50.620;3.400;2023-04-24T14:31:41;94.65;;;53.97;;